Main page
METAR-TAF:

METAR-TAF

Airports :

Christchurch International Airport

Christchurch, New Zealand

latitude: 43-29S, longitude: 172-33E, elevation: 38 m

Current weather observation

The report was made 53 minutes ago, at 16:30 UTC
Wind 5 kt from the East/Northeast
Temperature 2°C
Humidity 100%
Pressure 1019 hPa
Visibility 10 km or more

METAR: NZCH 211630Z AUTO 07005KT 9999 NCD 02/02 Q1019

Time: 05:23 (17:23 UTC)

Forecast

The report was made 2 hours and 39 minutes ago, at 14:44 UTC
Forecast valid from 21 at 15 UTC to 22 at 18 UTC
Wind 2 kt from variable directions
Visibility 10 km or more
no clouds below 1500 m and no cumulonimbus
Becoming
from 21 at 22 UTC to 22 at 00 UTC
Wind 10 kt from the Northeast
Becoming
from 22 at 05 UTC to 22 at 07 UTC
Wind 5 kt from the West/Northwest
Probability 30%
from 22 at 10 UTC to 22 at 18 UTC
Visibility: 0400 m
fog,

TAF: NZCH 211444Z 2115/2218 VRB02KT CAVOK BECMG 2122/2200 04010KT BECMG 2205/2207 30005KT PROB30 2210/2218 0400 FG

Weather observations and forecasts of more than 4000 airports (METAR and TAF reports).

The available stations are represented by yellow and red dots on the map.

Hover mouse over dot to see the name of the station.

Then click to see weather observations and forecasts.

To change the map : click on the green buttons with a black cross to zoom in, on the green button with a dash to zoom out, or on the green arrows for adjacent maps.


METAR-TAF: